createdAt,value
2023-12-14T00:00:56.461Z,51.66
2023-12-14T00:01:56.495Z,51.83
2023-12-14T00:02:56.439Z,52.31
2023-12-14T00:03:56.444Z,52.04
2023-12-14T00:04:56.481Z,52.12
2023-12-14T00:05:56.469Z,51.39
2023-12-14T00:06:56.455Z,51.66
2023-12-14T00:07:56.510Z,51.35
2023-12-14T00:08:56.442Z,51.98
2023-12-14T00:09:56.444Z,50.89
2023-12-14T00:10:56.480Z,52.12
2023-12-14T00:11:56.441Z,52.34
2023-12-14T00:12:56.491Z,52.48
2023-12-14T00:13:56.526Z,50.69
2023-12-14T00:14:56.448Z,50.69
2023-12-14T00:15:56.457Z,52.33
2023-12-14T00:16:56.490Z,51.49
2023-12-14T00:17:56.604Z,51.01
2023-12-14T00:18:56.497Z,50.84
2023-12-14T00:19:56.469Z,51.47
2023-12-14T00:20:56.456Z,52.13
2023-12-14T00:21:56.476Z,52.55
2023-12-14T00:22:56.478Z,51.79
2023-12-14T00:23:56.492Z,50.76
2023-12-14T00:24:56.471Z,51.00
2023-12-14T00:25:56.513Z,52.45
2023-12-14T00:26:56.463Z,51.61
2023-12-14T00:27:56.464Z,50.93
2023-12-14T00:29:01.481Z,51.64
2023-12-14T00:29:57.481Z,51.71
2023-12-14T00:30:56.555Z,51.89
2023-12-14T00:31:56.499Z,51.66
2023-12-14T00:32:56.521Z,51.50
2023-12-14T00:33:56.570Z,51.44
2023-12-14T00:34:56.521Z,52.05
2023-12-14T00:35:56.488Z,50.68
2023-12-14T00:36:56.482Z,51.33
2023-12-14T00:37:56.565Z,51.57
2023-12-14T00:38:56.491Z,52.66
2023-12-14T00:39:56.496Z,50.71
2023-12-14T00:40:56.512Z,51.15
2023-12-14T00:41:56.510Z,51.82
2023-12-14T00:42:56.499Z,50.58
2023-12-14T00:43:56.519Z,50.82
2023-12-14T00:44:56.503Z,50.63
2023-12-14T00:45:56.503Z,51.12
2023-12-14T00:46:56.625Z,51.16
2023-12-14T00:47:56.535Z,51.76
2023-12-14T00:48:56.547Z,51.66
2023-12-14T00:49:56.539Z,50.63
2023-12-14T00:50:56.510Z,51.30
2023-12-14T00:51:56.516Z,51.07
2023-12-14T00:52:56.528Z,50.51
2023-12-14T00:53:56.513Z,50.51
2023-12-14T00:54:56.517Z,50.68
2023-12-14T00:55:56.563Z,50.94
2023-12-14T00:56:56.538Z,50.37
2023-12-14T00:57:56.557Z,50.02
2023-12-14T00:58:56.803Z,50.87
2023-12-14T00:59:56.765Z,50.03
2023-12-14T01:00:56.687Z,51.19
2023-12-14T01:01:56.733Z,50.59
2023-12-14T01:02:56.710Z,50.88
2023-12-14T01:03:56.732Z,50.68
2023-12-14T01:04:56.788Z,50.44
2023-12-14T01:05:56.788Z,50.99
2023-12-14T01:06:56.821Z,52.07
2023-12-14T01:07:56.867Z,52.35
2023-12-14T01:08:56.887Z,51.04
2023-12-14T01:09:56.906Z,50.55
2023-12-14T01:10:56.940Z,51.56
2023-12-14T01:11:56.946Z,52.17
2023-12-14T01:12:56.966Z,52.56
2023-12-14T01:13:57.009Z,52.36
2023-12-14T01:14:57.031Z,52.37
2023-12-14T01:15:57.098Z,51.36
2023-12-14T01:16:57.116Z,51.85
2023-12-14T01:17:57.179Z,50.94
2023-12-14T01:18:57.264Z,52.01
2023-12-14T01:19:57.197Z,51.84
2023-12-14T01:20:57.237Z,52.36
2023-12-14T01:21:57.253Z,51.67
2023-12-14T01:22:57.286Z,51.55
2023-12-14T01:23:57.284Z,51.30
2023-12-14T01:24:57.300Z,51.51
2023-12-14T01:25:57.427Z,50.83
2023-12-14T01:26:57.357Z,51.48
2023-12-14T01:27:57.405Z,51.12
2023-12-14T01:28:57.455Z,50.00
2023-12-14T01:29:57.448Z,50.87
2023-12-14T01:30:57.488Z,51.91
2023-12-14T01:31:57.537Z,51.26
2023-12-14T01:32:57.522Z,51.18
2023-12-14T01:33:57.582Z,51.29
2023-12-14T01:34:57.609Z,50.94
2023-12-14T01:35:57.595Z,51.14
2023-12-14T01:36:57.623Z,50.61
2023-12-14T01:37:57.733Z,51.66
2023-12-14T01:38:57.716Z,51.48
2023-12-14T01:39:57.729Z,51.33
2023-12-14T01:40:57.811Z,51.17
2023-12-14T01:41:57.797Z,50.56
2023-12-14T01:42:57.825Z,51.05
2023-12-14T01:43:57.888Z,50.00
2023-12-14T01:44:57.896Z,51.36
2023-12-14T01:45:57.916Z,51.35
2023-12-14T01:46:58.005Z,50.80
2023-12-14T01:47:58.124Z,50.00
2023-12-14T01:48:58.021Z,50.87
2023-12-14T01:49:58.065Z,50.68
2023-12-14T01:50:58.058Z,51.19
2023-12-14T01:51:58.884Z,50.75
2023-12-14T01:52:58.156Z,51.31
2023-12-14T01:53:58.163Z,50.00
2023-12-14T01:54:58.168Z,51.34
2023-12-14T01:55:58.263Z,51.62
2023-12-14T01:56:58.214Z,50.95
2023-12-14T01:57:58.240Z,51.29
2023-12-14T01:58:58.299Z,50.57
2023-12-14T01:59:58.315Z,50.97
2023-12-14T02:00:58.450Z,51.37
2023-12-14T02:01:58.473Z,50.90
2023-12-14T02:02:58.389Z,51.49
2023-12-14T02:03:58.438Z,51.58
2023-12-14T02:04:58.523Z,51.52
2023-12-14T02:05:58.479Z,50.92
2023-12-14T02:06:58.510Z,50.00
2023-12-14T02:07:58.524Z,51.45
2023-12-14T02:08:58.571Z,50.78
2023-12-14T02:09:58.575Z,50.65
2023-12-14T02:10:58.642Z,51.15
2023-12-14T02:11:58.647Z,50.93
2023-12-14T02:12:58.679Z,50.96
2023-12-14T02:13:58.768Z,50.51
2023-12-14T02:14:58.749Z,50.51
2023-12-14T02:15:58.789Z,50.19
2023-12-14T02:16:58.853Z,51.00
2023-12-14T02:17:58.930Z,51.13
2023-12-14T02:18:58.958Z,50.00
2023-12-14T02:19:59.009Z,51.29
2023-12-14T02:20:58.993Z,50.85
2023-12-14T02:21:59.035Z,51.65
2023-12-14T02:22:59.112Z,51.05
2023-12-14T02:23:59.113Z,51.08
2023-12-14T02:24:59.140Z,50.56
2023-12-14T02:25:59.210Z,50.56
2023-12-14T02:27:03.035Z,50.90
2023-12-14T02:27:59.219Z,50.96
2023-12-14T02:28:59.266Z,51.00
2023-12-14T02:29:59.219Z,51.09
2023-12-14T02:30:59.310Z,51.40
2023-12-14T02:31:59.287Z,51.72
2023-12-14T02:32:59.282Z,50.72
2023-12-14T02:33:59.431Z,52.19
2023-12-14T02:34:59.277Z,50.95
2023-12-14T02:35:59.235Z,52.27
2023-12-14T02:36:59.236Z,51.52
2023-12-14T02:37:59.282Z,50.26
2023-12-14T02:38:59.279Z,51.06
2023-12-14T02:39:59.234Z,52.31
2023-12-14T02:40:59.278Z,51.59
2023-12-14T02:41:59.240Z,50.07
2023-12-14T02:42:59.283Z,50.26
2023-12-14T02:43:59.380Z,50.92
2023-12-14T02:44:59.378Z,51.53
2023-12-14T02:45:59.397Z,51.25
2023-12-14T02:46:59.472Z,51.74
2023-12-14T02:47:59.503Z,51.31
2023-12-14T02:48:59.562Z,51.56
2023-12-14T02:49:59.580Z,51.71
2023-12-14T02:50:59.584Z,50.85
2023-12-14T02:51:59.629Z,50.37
2023-12-14T02:52:59.758Z,50.65
2023-12-14T02:53:59.712Z,52.17
2023-12-14T02:54:59.729Z,51.35
2023-12-14T02:55:59.779Z,50.39
2023-12-14T02:56:59.798Z,51.26
2023-12-14T02:57:59.851Z,50.23
2023-12-14T02:58:59.936Z,50.96
2023-12-14T02:59:59.920Z,51.65
2023-12-14T03:00:59.995Z,50.25
2023-12-14T03:02:00.047Z,51.15
2023-12-14T03:03:00.058Z,50.69
2023-12-14T03:04:00.194Z,51.09
2023-12-14T03:05:00.253Z,51.27
2023-12-14T03:06:00.253Z,51.20
2023-12-14T03:07:00.204Z,50.07
2023-12-14T03:08:00.329Z,51.40
2023-12-14T03:09:00.305Z,50.92
2023-12-14T03:10:00.369Z,50.68
2023-12-14T03:11:00.410Z,50.39
2023-12-14T03:12:00.431Z,50.71
2023-12-14T03:13:00.484Z,50.46
2023-12-14T03:14:00.564Z,50.00
2023-12-14T03:15:00.536Z,50.41
2023-12-14T03:16:00.581Z,50.87
2023-12-14T03:17:00.688Z,51.46
2023-12-14T03:18:00.768Z,51.85
2023-12-14T03:19:00.703Z,51.34
2023-12-14T03:20:00.795Z,52.21
2023-12-14T03:21:00.740Z,52.33
2023-12-14T03:22:00.766Z,51.72
2023-12-14T03:23:00.841Z,52.60
2023-12-14T03:24:00.807Z,51.52
2023-12-14T03:25:00.823Z,50.19
2023-12-14T03:26:00.884Z,51.40
2023-12-14T03:27:00.889Z,51.42
2023-12-14T03:28:00.906Z,51.16
2023-12-14T03:29:00.947Z,51.07
2023-12-14T03:30:00.963Z,51.71
2023-12-14T03:31:01.038Z,52.57
2023-12-14T03:32:01.093Z,52.43
2023-12-14T03:33:01.078Z,52.89
2023-12-14T03:34:01.092Z,51.26
2023-12-14T03:35:01.094Z,51.00
2023-12-14T03:36:01.097Z,50.61
2023-12-14T03:37:01.111Z,51.21
2023-12-14T03:38:01.150Z,50.29
2023-12-14T03:39:01.152Z,50.51
2023-12-14T03:40:01.191Z,51.82
2023-12-14T03:41:01.216Z,53.06
2023-12-14T03:42:01.224Z,50.27
2023-12-14T03:43:01.272Z,52.34
2023-12-14T03:44:01.306Z,51.21
2023-12-14T03:45:01.291Z,51.89
2023-12-14T03:46:01.319Z,50.00
2023-12-14T03:47:01.430Z,52.50
2023-12-14T03:48:01.429Z,52.36
2023-12-14T03:49:01.406Z,51.19
2023-12-14T03:50:01.449Z,52.41
2023-12-14T03:51:01.398Z,52.24
2023-12-14T03:52:01.404Z,51.44
2023-12-14T03:53:01.499Z,51.87
2023-12-14T03:54:01.429Z,49.99
2023-12-14T03:55:01.426Z,53.99
2023-12-14T03:56:01.456Z,53.17
2023-12-14T03:57:01.441Z,52.36
2023-12-14T03:58:01.453Z,54.39
2023-12-14T03:59:01.544Z,52.48
2023-12-14T04:00:01.494Z,53.13
2023-12-14T04:01:01.581Z,50.83
2023-12-14T04:02:01.637Z,54.70
2023-12-14T04:03:01.509Z,51.49
2023-12-14T04:04:01.506Z,51.89
2023-12-14T04:05:01.630Z,51.58
2023-12-14T04:06:01.535Z,50.00
2023-12-14T04:07:01.559Z,52.96
2023-12-14T04:08:01.657Z,52.62
2023-12-14T04:09:01.592Z,51.48
2023-12-14T04:10:01.584Z,51.22
2023-12-14T04:11:01.624Z,55.45
2023-12-14T04:12:01.611Z,51.12
2023-12-14T04:13:01.640Z,53.09
2023-12-14T04:14:01.822Z,52.75
2023-12-14T04:15:01.685Z,51.32
2023-12-14T04:16:01.755Z,54.33
2023-12-14T04:17:01.864Z,52.25
2023-12-14T04:18:01.963Z,52.06
2023-12-14T04:19:01.959Z,52.50
2023-12-14T04:20:02.046Z,52.85
2023-12-14T04:21:01.990Z,51.34
2023-12-14T04:22:02.026Z,53.13
2023-12-14T04:23:02.083Z,52.67
2023-12-14T04:24:02.101Z,51.98
2023-12-14T04:25:02.110Z,52.24
2023-12-14T04:26:02.216Z,50.84
2023-12-14T04:27:02.183Z,50.82
2023-12-14T04:28:02.184Z,51.75
2023-12-14T04:29:02.279Z,54.30
2023-12-14T04:30:02.269Z,51.88
2023-12-14T04:31:02.347Z,50.92
2023-12-14T04:32:02.384Z,51.83
2023-12-14T04:33:02.369Z,52.56
2023-12-14T04:34:02.432Z,51.48
2023-12-14T04:35:09.719Z,50.00
2023-12-14T04:36:09.671Z,50.00
2023-12-14T04:37:09.670Z,50.00
2023-12-14T04:38:09.833Z,50.00
2023-12-14T04:39:09.688Z,50.00
2023-12-14T04:40:09.691Z,50.53
2023-12-14T04:41:09.731Z,55.10
2023-12-14T04:42:09.692Z,52.94
2023-12-14T04:43:09.695Z,54.51
2023-12-14T04:44:09.746Z,52.19
2023-12-14T04:45:09.700Z,50.00
2023-12-14T04:46:09.695Z,51.71
2023-12-14T04:47:09.839Z,51.73
2023-12-14T04:48:09.791Z,52.84
2023-12-14T04:49:09.832Z,51.86
2023-12-14T04:50:09.763Z,54.01
2023-12-14T04:51:09.684Z,50.00
2023-12-14T04:52:09.689Z,55.24
2023-12-14T04:53:09.724Z,51.85
2023-12-14T04:54:09.709Z,50.83
2023-12-14T04:55:09.828Z,52.12
2023-12-14T04:56:09.760Z,50.32
2023-12-14T04:57:09.715Z,51.90
2023-12-14T04:58:09.713Z,51.56
2023-12-14T04:59:09.717Z,52.45
2023-12-14T05:00:09.721Z,51.61
2023-12-14T05:01:09.826Z,52.43
2023-12-14T05:02:09.880Z,51.89
2023-12-14T05:03:09.894Z,53.18
2023-12-14T05:04:10.034Z,51.62
2023-12-14T05:05:10.038Z,50.99
2023-12-14T05:06:10.205Z,51.40
2023-12-14T05:07:10.133Z,50.46
2023-12-14T05:08:10.289Z,51.09
2023-12-14T05:09:10.267Z,52.57
2023-12-14T05:10:10.326Z,53.01
2023-12-14T05:11:10.402Z,51.67
2023-12-14T05:12:10.452Z,52.53
2023-12-14T05:13:10.503Z,54.08
2023-12-14T05:14:10.575Z,51.97
2023-12-14T05:15:10.628Z,52.80
2023-12-14T05:16:10.653Z,52.54
2023-12-14T05:17:10.831Z,54.47
2023-12-14T05:18:10.851Z,52.48
2023-12-14T05:19:10.831Z,54.10
2023-12-14T05:20:10.940Z,52.54
2023-12-14T05:21:10.898Z,52.35
2023-12-14T05:22:10.936Z,52.15
2023-12-14T05:23:11.045Z,52.53
2023-12-14T05:24:11.054Z,51.56
2023-12-14T05:25:11.136Z,52.37
2023-12-14T05:26:11.231Z,52.30
2023-12-14T05:27:11.225Z,52.26
2023-12-14T05:28:11.280Z,51.23
2023-12-14T05:29:11.413Z,56.36
2023-12-14T05:30:11.429Z,52.16
2023-12-14T05:31:11.458Z,51.91
2023-12-14T05:32:11.583Z,52.04
2023-12-14T05:33:13.116Z,53.78
2023-12-14T05:34:11.738Z,51.38
2023-12-14T05:35:11.742Z,54.40
2023-12-14T05:36:12.127Z,53.53
2023-12-14T05:37:11.793Z,53.04
2023-12-14T05:38:11.920Z,52.46
2023-12-14T05:39:11.889Z,51.76
2023-12-14T05:40:11.964Z,51.31
2023-12-14T05:41:12.139Z,50.42
2023-12-14T05:42:12.070Z,52.29
2023-12-14T05:43:12.124Z,52.98
2023-12-14T05:44:12.273Z,53.24
2023-12-14T05:45:12.938Z,52.11
2023-12-14T05:46:12.261Z,53.97
2023-12-14T05:47:12.412Z,50.52
2023-12-14T05:48:12.431Z,51.44
2023-12-14T05:49:12.549Z,52.72
2023-12-14T05:50:12.518Z,52.45
2023-12-14T05:51:12.560Z,54.11
2023-12-14T05:52:12.603Z,50.18
2023-12-14T05:53:12.700Z,54.21
2023-12-14T05:54:12.717Z,52.61
2023-12-14T05:55:12.792Z,52.36
2023-12-14T05:56:12.930Z,52.16
2023-12-14T05:57:12.909Z,50.00
2023-12-14T05:58:13.001Z,53.40
2023-12-14T05:59:13.103Z,54.56
2023-12-14T06:00:13.117Z,53.24
2023-12-14T06:01:13.211Z,52.21
2023-12-14T06:02:13.298Z,53.41
2023-12-14T06:03:13.300Z,53.76
2023-12-14T06:04:13.394Z,53.63
2023-12-14T06:05:13.549Z,53.85
2023-12-14T06:06:13.554Z,52.10
2023-12-14T06:07:13.498Z,53.29
2023-12-14T06:08:13.647Z,52.34
2023-12-14T06:09:13.633Z,52.28
2023-12-14T06:10:13.662Z,53.13
2023-12-14T06:11:13.781Z,51.05
2023-12-14T06:12:13.754Z,54.06
2023-12-14T06:13:13.814Z,54.03
2023-12-14T06:14:14.000Z,50.36
2023-12-14T06:15:14.020Z,52.99
2023-12-14T06:16:14.357Z,51.42
2023-12-14T06:17:14.101Z,53.94
2023-12-14T06:18:14.317Z,54.03
2023-12-14T06:19:14.285Z,51.50
2023-12-14T06:20:14.420Z,53.73
2023-12-14T06:21:14.411Z,54.08
2023-12-14T06:22:15.397Z,54.60
2023-12-14T06:23:14.508Z,52.80
2023-12-14T06:24:14.549Z,54.62
2023-12-14T06:25:14.692Z,51.85
2023-12-14T06:26:14.949Z,51.87
2023-12-14T06:27:14.814Z,52.21
2023-12-14T06:28:14.816Z,50.19
2023-12-14T06:29:15.085Z,52.53
2023-12-14T06:30:15.031Z,53.99
2023-12-14T06:31:15.066Z,53.10
2023-12-14T06:32:15.138Z,52.64
2023-12-14T06:33:15.293Z,51.71
2023-12-14T06:34:15.311Z,51.07
2023-12-14T06:35:15.374Z,50.00
2023-12-14T06:36:15.372Z,53.44
2023-12-14T06:37:15.413Z,52.08
2023-12-14T06:38:15.570Z,51.84
2023-12-14T06:39:16.871Z,50.84
2023-12-14T06:40:15.718Z,48.47
2023-12-14T06:41:15.804Z,52.14
2023-12-14T06:42:15.821Z,52.45
2023-12-14T06:43:15.888Z,53.33
2023-12-14T06:44:16.173Z,51.01
2023-12-14T06:45:16.032Z,51.81
2023-12-14T06:46:16.097Z,52.83
2023-12-14T06:47:16.207Z,54.71
2023-12-14T06:48:16.273Z,60.26
2023-12-14T06:49:16.281Z,59.98
2023-12-14T06:50:16.414Z,62.12
2023-12-14T06:51:16.423Z,60.91
2023-12-14T06:52:16.479Z,62.13
2023-12-14T06:53:16.544Z,63.23
2023-12-14T06:54:16.582Z,67.04
2023-12-14T06:55:16.615Z,66.77
2023-12-14T06:56:16.814Z,65.92
2023-12-14T06:57:16.720Z,66.40
2023-12-14T06:58:16.741Z,64.96
2023-12-14T06:59:16.975Z,63.80
2023-12-14T07:00:16.863Z,61.43
2023-12-14T07:01:16.966Z,62.46
2023-12-14T07:02:16.988Z,62.62
2023-12-14T07:03:17.031Z,60.97
2023-12-14T07:04:17.727Z,59.60
2023-12-14T07:05:17.121Z,56.70
2023-12-14T07:06:17.153Z,59.64
2023-12-14T07:07:17.055Z,58.89
2023-12-14T07:08:17.195Z,56.07
2023-12-14T07:09:17.137Z,55.89
2023-12-14T07:10:17.174Z,55.29
2023-12-14T07:11:17.306Z,56.31
2023-12-14T07:12:17.251Z,54.25
2023-12-14T07:13:17.280Z,52.34
2023-12-14T07:14:17.350Z,53.01
2023-12-14T07:15:17.325Z,52.37
2023-12-14T07:16:17.374Z,50.46
2023-12-14T07:17:17.441Z,51.62
2023-12-14T07:18:17.494Z,53.25
2023-12-14T07:19:17.465Z,53.86
2023-12-14T07:20:17.569Z,53.17
2023-12-14T07:21:17.500Z,51.77
2023-12-14T07:22:17.534Z,53.48
2023-12-14T07:23:17.628Z,54.27
2023-12-14T07:24:17.586Z,53.16
2023-12-14T07:25:17.611Z,53.74
2023-12-14T07:26:17.682Z,52.41
2023-12-14T07:27:17.683Z,54.60
2023-12-14T07:28:17.675Z,54.94
2023-12-14T07:29:17.912Z,52.67
2023-12-14T07:30:17.925Z,50.85
2023-12-14T07:31:17.758Z,52.90
2023-12-14T07:32:17.833Z,53.44
2023-12-14T07:33:17.827Z,51.89
2023-12-14T07:34:17.903Z,53.02
2023-12-14T07:35:17.870Z,52.44
2023-12-14T07:36:17.867Z,52.36
2023-12-14T07:37:17.861Z,53.04
2023-12-14T07:38:18.014Z,55.07
2023-12-14T07:39:17.888Z,52.38
2023-12-14T07:40:17.895Z,53.41
2023-12-14T07:41:18.078Z,53.58
2023-12-14T07:42:17.919Z,53.09
2023-12-14T07:43:17.933Z,51.75
2023-12-14T07:44:18.412Z,52.54
2023-12-14T07:45:17.974Z,53.54
2023-12-14T07:46:18.372Z,52.59
2023-12-14T07:47:18.095Z,52.00
2023-12-14T07:48:18.121Z,53.13
2023-12-14T07:49:17.972Z,52.38
2023-12-14T07:50:18.049Z,54.70
2023-12-14T07:51:17.985Z,52.97
2023-12-14T07:52:18.404Z,56.76
2023-12-14T07:53:18.097Z,54.35
2023-12-14T07:54:18.379Z,56.67
2023-12-14T07:55:18.092Z,56.77
2023-12-14T07:56:18.155Z,60.12
2023-12-14T07:57:18.272Z,58.58
2023-12-14T07:58:18.325Z,59.70
2023-12-14T07:59:18.529Z,60.79
2023-12-14T08:00:18.416Z,59.66
2023-12-14T08:01:18.527Z,60.80
2023-12-14T08:02:18.628Z,60.95
2023-12-14T08:03:18.613Z,61.85
2023-12-14T08:04:18.676Z,63.73
2023-12-14T08:05:18.825Z,65.49
2023-12-14T08:06:18.872Z,63.77
2023-12-14T08:07:18.903Z,65.45
2023-12-14T08:08:19.007Z,68.02
2023-12-14T08:09:19.044Z,67.25
2023-12-14T08:10:19.099Z,67.36
2023-12-14T08:11:19.195Z,67.15
2023-12-14T08:12:19.237Z,66.33
2023-12-14T08:13:19.303Z,68.20
2023-12-14T08:14:19.386Z,70.00
2023-12-14T08:15:19.441Z,69.08
2023-12-14T08:16:19.501Z,71.71
2023-12-14T08:17:19.631Z,70.74
2023-12-14T08:18:19.717Z,70.82
2023-12-14T08:19:19.750Z,71.26
2023-12-14T08:20:19.831Z,72.76
2023-12-14T08:21:19.830Z,73.08
2023-12-14T08:22:19.879Z,72.62
2023-12-14T08:23:20.078Z,74.58
2023-12-14T08:24:20.001Z,75.01
2023-12-14T08:25:20.067Z,73.54
2023-12-14T08:26:20.203Z,73.17
2023-12-14T08:27:20.174Z,74.55
2023-12-14T08:28:20.225Z,75.29
2023-12-14T08:29:20.317Z,75.86
2023-12-14T08:30:20.459Z,75.94
2023-12-14T08:31:20.396Z,77.20
2023-12-14T08:32:20.504Z,76.26
2023-12-14T08:33:20.606Z,76.12
2023-12-14T08:34:20.556Z,76.84
2023-12-14T08:35:20.962Z,78.05
2023-12-14T08:36:20.712Z,74.86
2023-12-14T08:37:20.758Z,75.76
2023-12-14T08:38:20.920Z,79.42
2023-12-14T08:39:20.897Z,79.61
2023-12-14T08:40:20.996Z,78.11
2023-12-14T08:41:21.081Z,78.80
2023-12-14T08:42:21.082Z,82.55
2023-12-14T08:43:21.140Z,83.00
2023-12-14T08:44:21.308Z,81.30
2023-12-14T08:45:21.266Z,84.90
2023-12-14T08:46:21.327Z,85.70
2023-12-14T08:47:21.408Z,86.23
2023-12-14T08:48:21.550Z,85.29
2023-12-14T08:49:21.510Z,83.40
2023-12-14T08:50:21.565Z,85.80
2023-12-14T08:51:21.574Z,85.87
2023-12-14T08:52:21.630Z,88.67
2023-12-14T08:53:21.746Z,87.13
2023-12-14T08:54:21.770Z,87.66
2023-12-14T08:55:21.775Z,86.54
2023-12-14T08:56:21.969Z,89.83
2023-12-14T08:57:21.869Z,86.78
2023-12-14T08:58:21.904Z,91.16
2023-12-14T08:59:21.995Z,91.95
2023-12-14T09:00:21.988Z,91.70
2023-12-14T09:01:22.116Z,89.93
2023-12-14T09:02:22.183Z,94.05
2023-12-14T09:03:22.265Z,94.91
2023-12-14T09:04:22.222Z,93.07
2023-12-14T09:05:22.364Z,94.78
2023-12-14T09:06:22.328Z,93.59
2023-12-14T09:07:22.329Z,93.54
2023-12-14T09:08:22.387Z,94.21
2023-12-14T09:09:22.402Z,93.04
2023-12-14T09:10:22.479Z,94.14
2023-12-14T09:11:22.552Z,93.38
2023-12-14T09:12:22.580Z,94.41
2023-12-14T09:13:22.627Z,96.64
2023-12-14T09:14:22.713Z,95.69
2023-12-14T09:15:22.762Z,95.99
2023-12-14T09:16:22.815Z,91.73
2023-12-14T09:17:22.960Z,96.33
2023-12-14T09:18:22.986Z,94.78
2023-12-14T09:19:23.083Z,94.08
2023-12-14T09:20:23.130Z,93.43
2023-12-14T09:21:30.426Z,94.66
2023-12-14T09:22:24.104Z,94.69
2023-12-14T09:23:23.156Z,94.90
2023-12-14T09:24:23.224Z,92.03
2023-12-14T09:25:23.424Z,94.84
2023-12-14T09:26:23.463Z,92.37
2023-12-14T09:27:23.110Z,92.36
2023-12-14T09:28:23.116Z,95.35
2023-12-14T09:29:23.159Z,93.54
2023-12-14T09:30:23.249Z,94.53
2023-12-14T09:31:23.372Z,93.09
2023-12-14T09:32:23.386Z,94.95
2023-12-14T09:33:23.641Z,94.06
2023-12-14T09:34:23.448Z,95.66
2023-12-14T09:35:23.567Z,95.22
2023-12-14T09:36:23.602Z,95.88
2023-12-14T09:37:23.653Z,95.08
2023-12-14T09:38:23.761Z,92.49
2023-12-14T09:39:23.777Z,90.46
2023-12-14T09:40:23.874Z,92.29
2023-12-14T09:41:23.956Z,92.48
2023-12-14T09:42:23.961Z,94.51
2023-12-14T09:43:23.995Z,95.78
2023-12-14T09:44:24.098Z,94.05
2023-12-14T09:45:24.098Z,92.07
2023-12-14T09:46:24.152Z,94.36
2023-12-14T09:47:24.234Z,92.95
2023-12-14T09:48:24.360Z,90.81
2023-12-14T09:49:24.389Z,90.57
2023-12-14T09:50:24.535Z,89.64
2023-12-14T09:51:24.486Z,90.12
2023-12-14T09:52:24.563Z,87.85
2023-12-14T09:53:24.734Z,89.48
2023-12-14T09:54:24.698Z,87.16
2023-12-14T09:55:24.974Z,88.37
2023-12-14T09:56:24.854Z,85.30
2023-12-14T09:57:24.886Z,84.41
2023-12-14T09:58:24.964Z,85.18
2023-12-14T09:59:25.045Z,85.36
2023-12-14T10:00:25.439Z,82.45
2023-12-14T10:01:25.248Z,82.72
2023-12-14T10:02:25.338Z,78.24
2023-12-14T10:03:25.378Z,81.11
2023-12-14T10:04:25.349Z,83.45
2023-12-14T10:05:25.477Z,79.12
2023-12-14T10:06:25.535Z,76.63
2023-12-14T10:07:25.637Z,79.81
2023-12-14T10:08:25.676Z,77.55
2023-12-14T10:09:25.697Z,76.95
2023-12-14T10:10:25.684Z,77.02
2023-12-14T10:11:25.863Z,71.05
2023-12-14T10:12:25.803Z,75.59
2023-12-14T10:13:25.821Z,71.33
2023-12-14T10:14:26.135Z,73.59
2023-12-14T10:15:25.989Z,72.19
2023-12-14T10:16:25.959Z,74.39
2023-12-14T10:17:26.092Z,73.96
2023-12-14T10:18:26.378Z,76.70
2023-12-14T10:19:26.185Z,76.41
2023-12-14T10:20:26.220Z,76.56
2023-12-14T10:21:26.208Z,76.54
2023-12-14T10:22:26.223Z,76.10
2023-12-14T10:23:26.266Z,77.22
2023-12-14T10:24:26.326Z,77.95
2023-12-14T10:25:26.350Z,80.29
2023-12-14T10:26:26.399Z,79.83
2023-12-14T10:27:26.405Z,79.73
2023-12-14T10:28:26.469Z,81.00
2023-12-14T10:29:26.480Z,83.05
2023-12-14T10:30:26.503Z,81.33
2023-12-14T10:31:26.512Z,81.78
2023-12-14T10:32:26.705Z,81.46
2023-12-14T10:33:26.648Z,81.31
2023-12-14T10:34:26.573Z,79.15
2023-12-14T10:35:27.046Z,80.36
2023-12-14T10:36:26.651Z,78.32
2023-12-14T10:37:26.700Z,78.80
2023-12-14T10:38:26.820Z,79.12
2023-12-14T10:39:26.773Z,77.10
2023-12-14T10:40:26.968Z,75.57
2023-12-14T10:41:26.979Z,76.33
2023-12-14T10:42:26.895Z,73.89
2023-12-14T10:43:45.155Z,73.74
2023-12-14T10:44:42.566Z,73.74
2023-12-14T10:45:28.744Z,73.86
2023-12-14T10:46:26.982Z,73.27
2023-12-14T10:47:27.167Z,73.54
2023-12-14T10:48:27.013Z,69.11
2023-12-14T10:49:27.095Z,68.34
2023-12-14T10:50:26.998Z,67.82
2023-12-14T10:51:26.963Z,66.28
2023-12-14T10:52:26.978Z,67.00
2023-12-14T10:53:27.008Z,62.87
2023-12-14T10:54:27.018Z,61.32
2023-12-14T10:55:27.529Z,61.55
2023-12-14T10:56:27.099Z,57.26
2023-12-14T10:57:27.046Z,56.19
2023-12-14T10:58:27.067Z,56.48
2023-12-14T10:59:27.071Z,54.61
2023-12-14T11:00:27.087Z,53.38
2023-12-14T11:01:27.092Z,51.29
2023-12-14T11:02:27.091Z,50.05
2023-12-14T11:03:27.250Z,52.23
2023-12-14T11:04:27.131Z,51.67
2023-12-14T11:05:27.313Z,53.78
2023-12-14T11:06:27.256Z,53.58
2023-12-14T11:07:27.118Z,52.18
2023-12-14T11:08:27.159Z,50.90
2023-12-14T11:09:27.216Z,52.58
2023-12-14T11:10:27.196Z,52.81
2023-12-14T11:11:27.215Z,52.91
2023-12-14T11:12:27.188Z,49.65
2023-12-14T11:13:27.218Z,52.96
2023-12-14T11:14:27.232Z,52.19
2023-12-14T11:15:27.230Z,53.76
2023-12-14T11:16:27.271Z,51.25
2023-12-14T11:17:27.354Z,53.25
2023-12-14T11:18:27.881Z,52.95
2023-12-14T11:19:27.314Z,51.48
2023-12-14T11:20:27.387Z,52.75
2023-12-14T11:21:27.340Z,50.81
2023-12-14T11:22:27.354Z,51.80
2023-12-14T11:23:27.434Z,54.06
2023-12-14T11:24:27.406Z,51.27
2023-12-14T11:25:36.168Z,52.20
2023-12-14T11:26:28.453Z,52.28
2023-12-14T11:27:27.405Z,52.59
2023-12-14T11:28:28.263Z,52.88
2023-12-14T11:29:27.419Z,54.35
2023-12-14T11:30:29.079Z,54.73
2023-12-14T11:31:27.443Z,52.41
2023-12-14T11:32:27.542Z,52.82
2023-12-14T11:33:27.524Z,51.37
2023-12-14T11:34:27.414Z,51.22
2023-12-14T11:35:27.545Z,49.33
2023-12-14T11:36:27.435Z,49.13
2023-12-14T11:37:27.483Z,52.49
2023-12-14T11:38:27.508Z,54.42
2023-12-14T11:39:27.442Z,52.73
2023-12-14T11:40:27.421Z,54.25
2023-12-14T11:41:27.483Z,55.61
2023-12-14T11:42:27.425Z,58.31
2023-12-14T11:43:27.421Z,59.59
2023-12-14T11:44:27.619Z,58.99
2023-12-14T11:45:27.441Z,56.31
2023-12-14T11:46:27.427Z,63.10
2023-12-14T11:47:27.558Z,64.13
2023-12-14T11:48:27.557Z,64.37
2023-12-14T11:49:27.738Z,65.90
2023-12-14T11:50:27.594Z,66.27
2023-12-14T11:51:27.717Z,68.78
2023-12-14T11:52:27.649Z,72.63
2023-12-14T11:53:27.791Z,72.53
2023-12-14T11:54:27.756Z,75.36
2023-12-14T11:55:27.992Z,76.00
2023-12-14T11:56:27.893Z,76.60
2023-12-14T11:57:27.913Z,82.01
2023-12-14T11:58:27.942Z,84.43
2023-12-14T11:59:28.024Z,87.45
2023-12-14T12:00:28.038Z,89.28
2023-12-14T12:01:28.075Z,88.16
2023-12-14T12:02:28.176Z,92.14
2023-12-14T12:03:28.167Z,90.11
2023-12-14T12:04:28.245Z,89.41
2023-12-14T12:05:28.390Z,91.16
2023-12-14T12:06:28.326Z,88.93
2023-12-14T12:07:28.362Z,87.31
2023-12-14T12:08:28.476Z,88.64
2023-12-14T12:09:28.430Z,87.55
2023-12-14T12:10:28.442Z,87.11
2023-12-14T12:11:28.705Z,85.00
2023-12-14T12:12:28.501Z,84.90
2023-12-14T12:13:28.563Z,79.84
2023-12-14T12:14:28.673Z,83.35
2023-12-14T12:15:28.678Z,82.54
2023-12-14T12:16:28.697Z,83.06
2023-12-14T12:17:28.978Z,83.21
2023-12-14T12:18:28.928Z,84.29
2023-12-14T12:19:28.858Z,82.71
2023-12-14T12:20:28.913Z,86.66
2023-12-14T12:21:28.922Z,88.06
2023-12-14T12:22:28.917Z,88.29
2023-12-14T12:23:29.094Z,88.05
2023-12-14T12:24:29.465Z,89.38
2023-12-14T12:25:29.046Z,89.23
2023-12-14T12:26:29.090Z,91.10
2023-12-14T12:27:29.123Z,90.29
2023-12-14T12:29:57.138Z,92.49
2023-12-14T12:30:38.457Z,93.60
2023-12-14T12:31:35.125Z,94.26
2023-12-14T12:32:35.205Z,97.70
2023-12-14T12:33:35.215Z,101.44
2023-12-14T12:34:35.139Z,105.80
2023-12-14T12:35:35.195Z,107.95
2023-12-14T12:36:36.922Z,108.33
2023-12-14T12:37:35.242Z,105.36
2023-12-14T12:38:35.148Z,103.41
2023-12-14T12:39:35.126Z,100.42
2023-12-14T12:40:35.132Z,97.91
2023-12-14T12:41:35.145Z,97.44
2023-12-14T12:42:35.133Z,97.98
2023-12-14T12:43:35.146Z,96.93
2023-12-14T12:44:35.149Z,96.33
2023-12-14T12:45:35.134Z,98.42
2023-12-14T12:46:35.133Z,96.24
2023-12-14T12:47:35.446Z,93.92
2023-12-14T12:48:35.264Z,94.65
2023-12-14T12:49:35.309Z,96.26
2023-12-14T12:50:35.285Z,94.44
2023-12-14T12:51:35.154Z,94.54
2023-12-14T12:52:35.158Z,94.67
2023-12-14T12:53:35.184Z,96.03
2023-12-14T12:54:35.149Z,94.73